^^
Station Historical Data
 
Daily Summary for February 06, 2016 Units:  English    Metric   Both
« Previous Day
Next Day »
Daily Weekly Monthly Yearly Custom
  Current: High: Low: Average:
Temperature: 30.6 °F 30.6 °F 23.8 °F 25.9 °F
Dew Point: 26.3 °F 26.3 °F 21.0 °F 23.4 °F
Humidity: 84% 93% 84% 90%
Wind Speed: 9.2mph 9.2mph 0.0mph 3mph
Wind Gust: 9.2mph 9.2mph - -
WindSSW - - SSW
Pressure: 30.31 in 30.35 in 30.30 in -
Precipitation: 0.00 in      
Historical Graphs
 
 
Tabular Data for February 06, 2016
Time Temperature Dew Point Pressure Wind Wind Speed Wind Gust Humidity Rainfall Rate (Hourly)
00:04 24.2 °F 21.4 °F 30.35 in Calm     89% 0.00 in
00:09 24.0 °F 21.2 °F 30.34 in Calm     89% 0.00 in
00:14 23.9 °F 21.1 °F 30.34 in Calm     89% 0.00 in
00:19 23.8 °F 21.0 °F 30.34 in Calm     89% 0.00 in
00:24 23.8 °F 21.3 °F 30.34 in Calm     90% 0.00 in
00:29 23.8 °F 21.3 °F 30.34 in SW 1.2 mph 1.2 mph 90% 0.00 in
00:39 23.9 °F 21.7 °F 30.34 in SW 1.2 mph 1.2 mph 91% 0.00 in
00:44 24.0 °F 21.8 °F 30.34 in SW 2.0 mph 2.0 mph 91% 0.00 in
00:49 24.3 °F 22.3 °F 30.34 in SW 3.5 mph 3.5 mph 92% 0.00 in
00:54 24.8 °F 22.8 °F 30.34 in SSW 3.5 mph 3.5 mph 92% 0.00 in
00:59 25.2 °F 22.9 °F 30.34 in SW 3.5 mph 3.5 mph 91% 0.00 in
01:04 25.5 °F 23.2 °F 30.33 in SSW 2.3 mph 2.3 mph 91% 0.00 in
01:09 25.7 °F 23.2 °F 30.33 in SSW 3.5 mph 3.5 mph 90% 0.00 in
01:14 25.8 °F 23.3 °F 30.33 in SSW 2.0 mph 4.0 mph 90% 0.00 in
01:19 26.0 °F 23.2 °F 30.33 in SSW 4.6 mph 4.6 mph 89% 0.00 in
01:24 26.1 °F 23.3 °F 30.33 in SSW 2.0 mph 3.0 mph 89% 0.00 in
01:29 26.2 °F 23.4 °F 30.34 in SSW 2.0 mph 4.0 mph 89% 0.00 in
01:34 26.3 °F 23.5 °F 30.34 in SSW 3.0 mph 5.0 mph 89% 0.00 in
01:39 26.5 °F 23.7 °F 30.34 in SW 3.5 mph 3.7 mph 89% 0.00 in
01:49 26.7 °F 23.6 °F 30.34 in SW 3.0 mph 8.0 mph 88% 0.00 in
01:54 26.8 °F 23.7 °F 30.34 in SW 3.0 mph 7.0 mph 88% 0.00 in
01:59 26.9 °F 23.8 °F 30.33 in SW 2.0 mph 5.0 mph 88% 0.00 in
02:04 27.0 °F 23.9 °F 30.33 in SSW 3.0 mph 7.0 mph 88% 0.00 in
02:09 27.0 °F 23.9 °F 30.33 in SSW 2.0 mph 5.0 mph 88% 0.00 in
02:14 27.0 °F 23.9 °F 30.33 in SSW 2.0 mph 4.0 mph 88% 0.00 in
02:19 27.0 °F 23.9 °F 30.32 in SSW 2.0 mph 4.0 mph 88% 0.00 in
02:24 27.0 °F 23.9 °F 30.32 in SSW 2.0 mph 4.0 mph 88% 0.00 in
02:29 26.9 °F 23.8 °F 30.32 in SSW 3.0 mph 5.0 mph 88% 0.00 in
02:34 26.9 °F 23.8 °F 30.32 in SSW 1.0 mph 4.0 mph 88% 0.00 in
02:39 26.9 °F 23.8 °F 30.32 in SSW 2.0 mph 4.0 mph 88% 0.00 in
02:44 26.8 °F 23.7 °F 30.32 in SSW 2.0 mph 5.0 mph 88% 0.00 in
02:49 26.8 °F 23.7 °F 30.32 in SSW 2.0 mph 4.0 mph 88% 0.00 in
02:54 26.7 °F 23.6 °F 30.32 in SSW 1.0 mph 3.0 mph 88% 0.00 in
02:59 26.7 °F 23.6 °F 30.32 in SW 2.0 mph 3.0 mph 88% 0.00 in
03:04 26.7 °F 23.6 °F 30.31 in South 2.0 mph 3.0 mph 88% 0.00 in
03:09 26.7 °F 23.6 °F 30.32 in South 1.0 mph 3.0 mph 88% 0.00 in
03:19 26.5 °F 23.7 °F 30.31 in South 1.0 mph 2.0 mph 89% 0.00 in
03:24 26.5 °F 23.7 °F 30.32 in South 1.0 mph 2.0 mph 89% 0.00 in
03:29 26.4 °F 23.6 °F 30.32 in SSW 2.0 mph 3.0 mph 89% 0.00 in
03:39 26.2 °F 23.7 °F 30.32 in SSW 2.0 mph 3.0 mph 90% 0.00 in
03:44 26.1 °F 23.6 °F 30.32 in SSW 2.3 mph 2.3 mph 90% 0.00 in
03:49 25.9 °F 23.4 °F 30.32 in SSW 2.3 mph 2.3 mph 90% 0.00 in
03:54 25.7 °F 23.2 °F 30.32 in SSW 1.2 mph 1.2 mph 90% 0.00 in
03:59 25.6 °F 23.1 °F 30.32 in SSW 2.3 mph 2.3 mph 90% 0.00 in
04:04 25.6 °F 23.3 °F 30.32 in SSW 2.3 mph 2.3 mph 91% 0.00 in
04:09 25.7 °F 23.7 °F 30.32 in SW 4.6 mph 4.6 mph 92% 0.00 in
04:14 25.8 °F 23.8 °F 30.32 in SW 3.5 mph 3.5 mph 92% 0.00 in
04:19 26.0 °F 23.7 °F 30.32 in SSW 4.6 mph 4.6 mph 91% 0.00 in
04:24 26.2 °F 23.7 °F 30.31 in South 3.5 mph 3.5 mph 90% 0.00 in
04:29 26.2 °F 23.7 °F 30.31 in SSW 3.5 mph 3.5 mph 90% 0.00 in
04:34 26.2 °F 23.7 °F 30.31 in SSW 2.3 mph 2.3 mph 90% 0.00 in
04:39 26.1 °F 23.3 °F 30.31 in SSW 2.3 mph 2.3 mph 89% 0.00 in
04:44 26.0 °F 23.5 °F 30.31 in SSW 2.3 mph 2.3 mph 90% 0.00 in
04:49 25.9 °F 23.4 °F 30.31 in SSW 2.3 mph 2.3 mph 90% 0.00 in
04:54 25.8 °F 23.3 °F 30.32 in SSW 1.2 mph 1.2 mph 90% 0.00 in
04:59 25.7 °F 23.2 °F 30.31 in SSW 1.0 mph 1.0 mph 90% 0.00 in
05:04 25.7 °F 23.4 °F 30.31 in SSW 1.2 mph 1.2 mph 91% 0.00 in
05:09 25.7 °F 23.4 °F 30.31 in Calm     91% 0.00 in
05:14 25.7 °F 23.4 °F 30.31 in SSW 1.2 mph 1.2 mph 91% 0.00 in
05:19 25.8 °F 23.8 °F 30.31 in SSW 3.5 mph 3.5 mph 92% 0.00 in
05:24 25.8 °F 23.8 °F 30.31 in South 2.3 mph 2.3 mph 92% 0.00 in
05:29 25.9 °F 23.9 °F 30.32 in South 3.5 mph 3.5 mph 92% 0.00 in
05:34 26.0 °F 24.0 °F 30.32 in SSW 2.3 mph 2.3 mph 92% 0.00 in
05:39 26.0 °F 24.0 °F 30.32 in SSW 1.2 mph 1.2 mph 92% 0.00 in
05:44 26.0 °F 24.0 °F 30.32 in South 2.3 mph 2.3 mph 92% 0.00 in
05:49 26.0 °F 24.0 °F 30.32 in South 3.5 mph 3.5 mph 92% 0.00 in
05:54 25.9 °F 23.6 °F 30.32 in South 3.0 mph 3.0 mph 91% 0.00 in
05:59 25.9 °F 23.6 °F 30.32 in South 3.5 mph 3.5 mph 91% 0.00 in
06:04 25.8 °F 23.5 °F 30.31 in South 2.3 mph 2.3 mph 91% 0.00 in
06:09 25.7 °F 23.4 °F 30.32 in South 3.5 mph 3.5 mph 91% 0.00 in
06:14 25.6 °F 23.3 °F 30.32 in South 1.2 mph 1.2 mph 91% 0.00 in
06:24 25.3 °F 23.0 °F 30.32 in South 2.3 mph 2.3 mph 91% 0.00 in
06:29 25.1 °F 22.8 °F 30.32 in South 2.3 mph 2.3 mph 91% 0.00 in
06:34 24.9 °F 22.6 °F 30.32 in South 3.5 mph 3.5 mph 91% 0.00 in
06:39 24.7 °F 22.4 °F 30.32 in South 2.3 mph 2.3 mph 91% 0.00 in
06:44 24.5 °F 22.2 °F 30.32 in South 3.5 mph 3.5 mph 91% 0.00 in
06:49 24.3 °F 22.1 °F 30.32 in South 2.3 mph 2.3 mph 91% 0.00 in
06:54 24.2 °F 22.2 °F 30.32 in South 3.5 mph 3.5 mph 92% 0.00 in
06:59 24.1 °F 22.1 °F 30.32 in South 3.5 mph 3.5 mph 92% 0.00 in
07:04 24.1 °F 22.1 °F 30.32 in South 3.5 mph 3.5 mph 92% 0.00 in
07:09 24.0 °F 22.0 °F 30.32 in South 3.5 mph 3.5 mph 92% 0.00 in
07:14 24.0 °F 22.0 °F 30.32 in South 3.5 mph 3.5 mph 92% 0.00 in
07:19 24.0 °F 22.3 °F 30.32 in South 3.5 mph 3.5 mph 93% 0.00 in
07:24 24.1 °F 22.4 °F 30.32 in South 3.5 mph 3.5 mph 93% 0.00 in
07:29 24.2 °F 22.5 °F 30.32 in South 5.0 mph 5.0 mph 93% 0.00 in
07:34 24.3 °F 22.6 °F 30.32 in South 3.5 mph 3.5 mph 93% 0.00 in
07:39 24.5 °F 22.8 °F 30.32 in South 3.5 mph 3.5 mph 93% 0.00 in
07:49 25.0 °F 23.3 °F 30.32 in SSE 3.5 mph 3.5 mph 93% 0.00 in
07:54 25.4 °F 23.7 °F 30.32 in SSW 5.0 mph 5.0 mph 93% 0.00 in
07:59 25.7 °F 24.0 °F 30.32 in SW 5.0 mph 5.0 mph 93% 0.00 in
08:09 26.3 °F 24.6 °F 30.31 in SW 4.6 mph 4.6 mph 93% 0.00 in
08:19 27.0 °F 25.0 °F 30.31 in South 5.8 mph 5.8 mph 92% 0.00 in
08:24 27.3 °F 25.0 °F 30.31 in SSW 4.6 mph 4.6 mph 91% 0.00 in
08:29 27.6 °F 25.3 °F 30.31 in SW 3.5 mph 3.5 mph 91% 0.00 in
08:34 27.9 °F 25.3 °F 30.31 in SSW 4.6 mph 4.6 mph 90% 0.00 in
08:39 28.2 °F 25.4 °F 30.30 in South 3.5 mph 3.5 mph 89% 0.00 in
08:44 28.5 °F 25.4 °F 30.31 in South 5.8 mph 5.8 mph 88% 0.00 in
08:49 28.8 °F 25.7 °F 30.31 in SSW 6.0 mph 6.0 mph 88% 0.00 in
08:54 29.2 °F 25.8 °F 30.31 in SW 5.8 mph 5.8 mph 87% 0.00 in
08:59 29.6 °F 26.2 °F 30.31 in SSW 5.8 mph 5.8 mph 87% 0.00 in
09:04 30.0 °F 26.3 °F 30.31 in WSW 5.0 mph 5.0 mph 86% 0.00 in
09:14 30.6 °F 26.3 °F 30.31 in SSW 9.2 mph 9.2 mph 84% 0.00 in
jolietwx - Weather
Compliments of Weather Underground